Blanchard Township, Maine
Current Conditions -  °F | °C
As of 11:53 PM on Sunday 21 Dec 2014 (Local Time) from KMLT Reporting Station
Haze Haze  
Wind Chill: 27°   Ceiling: 700
Heat Index: 27°   Visibility: 6mi
Dew Point: 25°   Wind: 3mph
Humidity: 92%   Direction: 50°NE
Pressure: 30.39"   Gusts: NA
Location:  45.3122°N, 69.5439°W
Report Text: KMLT 220453Z AUTO 05003KT 6SM BR OVC007 M03/M04 A3039 RMK AO2 SLP302 T10281039 410281061
Loading
Personal Weather Stations






























Interactive Weather Map New forecast layout! Learn more

10-Day Weather Forecast

Advertisements
Track Severe Weather on mobile